sensor_id;sensor_type;location;lat;lon;timestamp;P1;durP1;ratioP1;P2;durP2;ratioP2
36475;SDS011;56615;42.682;23.364;2022-12-18T00:01:22;11.20;;;6.78;;
36475;SDS011;56615;42.682;23.364;2022-12-18T00:03:50;11.65;;;6.45;;
36475;SDS011;56615;42.682;23.364;2022-12-18T00:06:18;10.90;;;6.40;;
36475;SDS011;56615;42.682;23.364;2022-12-18T00:08:44;11.43;;;7.07;;
36475;SDS011;56615;42.682;23.364;2022-12-18T00:11:12;11.88;;;7.18;;
36475;SDS011;56615;42.682;23.364;2022-12-18T00:13:46;9.82;;;6.50;;
36475;SDS011;56615;42.682;23.364;2022-12-18T00:16:16;11.70;;;7.20;;
36475;SDS011;56615;42.682;23.364;2022-12-18T00:18:45;11.82;;;7.35;;
36475;SDS011;56615;42.682;23.364;2022-12-18T00:21:11;12.18;;;8.20;;
36475;SDS011;56615;42.682;23.364;2022-12-18T00:23:39;12.30;;;7.55;;
36475;SDS011;56615;42.682;23.364;2022-12-18T00:26:11;11.07;;;7.20;;
36475;SDS011;56615;42.682;23.364;2022-12-18T00:28:42;12.43;;;7.80;;
36475;SDS011;56615;42.682;23.364;2022-12-18T00:31:09;12.88;;;7.85;;
36475;SDS011;56615;42.682;23.364;2022-12-18T00:33:38;13.32;;;7.40;;
36475;SDS011;56615;42.682;23.364;2022-12-18T00:36:04;12.95;;;7.90;;
36475;SDS011;56615;42.682;23.364;2022-12-18T00:38:37;13.05;;;7.82;;
36475;SDS011;56615;42.682;23.364;2022-12-18T00:41:03;14.70;;;7.93;;
36475;SDS011;56615;42.682;23.364;2022-12-18T00:43:29;13.30;;;7.50;;
36475;SDS011;56615;42.682;23.364;2022-12-18T00:46:00;12.27;;;7.65;;
36475;SDS011;56615;42.682;23.364;2022-12-18T00:48:29;12.85;;;7.82;;
36475;SDS011;56615;42.682;23.364;2022-12-18T00:50:54;11.40;;;6.90;;
36475;SDS011;56615;42.682;23.364;2022-12-18T00:53:20;13.35;;;7.50;;
36475;SDS011;56615;42.682;23.364;2022-12-18T00:55:46;12.88;;;7.43;;
36475;SDS011;56615;42.682;23.364;2022-12-18T00:58:12;12.85;;;7.25;;
36475;SDS011;56615;42.682;23.364;2022-12-18T01:00:39;11.68;;;6.90;;
36475;SDS011;56615;42.682;23.364;2022-12-18T01:03:04;11.82;;;7.40;;
36475;SDS011;56615;42.682;23.364;2022-12-18T01:05:31;13.25;;;7.40;;
36475;SDS011;56615;42.682;23.364;2022-12-18T01:07:57;13.15;;;7.50;;
36475;SDS011;56615;42.682;23.364;2022-12-18T01:10:23;12.75;;;7.85;;
36475;SDS011;56615;42.682;23.364;2022-12-18T01:12:50;12.13;;;7.47;;
36475;SDS011;56615;42.682;23.364;2022-12-18T01:15:16;12.57;;;7.63;;
36475;SDS011;56615;42.682;23.364;2022-12-18T01:17:42;13.38;;;8.00;;
36475;SDS011;56615;42.682;23.364;2022-12-18T01:20:08;14.15;;;8.55;;
36475;SDS011;56615;42.682;23.364;2022-12-18T01:22:34;13.30;;;7.93;;
36475;SDS011;56615;42.682;23.364;2022-12-18T01:25:00;14.05;;;7.75;;
36475;SDS011;56615;42.682;23.364;2022-12-18T01:27:26;13.15;;;8.27;;
36475;SDS011;56615;42.682;23.364;2022-12-18T01:29:51;13.55;;;8.23;;
36475;SDS011;56615;42.682;23.364;2022-12-18T01:32:17;15.25;;;8.65;;
36475;SDS011;56615;42.682;23.364;2022-12-18T01:34:42;13.45;;;8.07;;
36475;SDS011;56615;42.682;23.364;2022-12-18T01:37:08;13.18;;;8.15;;
36475;SDS011;56615;42.682;23.364;2022-12-18T01:39:33;17.25;;;9.07;;
36475;SDS011;56615;42.682;23.364;2022-12-18T01:41:59;13.00;;;8.10;;
36475;SDS011;56615;42.682;23.364;2022-12-18T01:49:53;14.55;;;8.60;;
36475;SDS011;56615;42.682;23.364;2022-12-18T01:52:20;15.38;;;9.43;;
36475;SDS011;56615;42.682;23.364;2022-12-18T01:54:47;15.60;;;9.63;;
36475;SDS011;56615;42.682;23.364;2022-12-18T01:57:14;16.77;;;9.65;;
36475;SDS011;56615;42.682;23.364;2022-12-18T01:59:39;15.82;;;8.50;;
36475;SDS011;56615;42.682;23.364;2022-12-18T02:02:07;16.13;;;9.43;;
36475;SDS011;56615;42.682;23.364;2022-12-18T02:04:33;13.50;;;8.55;;
36475;SDS011;56615;42.682;23.364;2022-12-18T02:09:30;14.77;;;8.85;;
36475;SDS011;56615;42.682;23.364;2022-12-18T02:14:49;15.10;;;8.85;;
36475;SDS011;56615;42.682;23.364;2022-12-18T02:17:50;14.63;;;8.55;;
36475;SDS011;56615;42.682;23.364;2022-12-18T02:28:49;13.25;;;7.45;;
36475;SDS011;56615;42.682;23.364;2022-12-18T02:31:20;12.95;;;7.82;;
36475;SDS011;56615;42.682;23.364;2022-12-18T02:33:47;12.40;;;7.30;;
36475;SDS011;56615;42.682;23.364;2022-12-18T02:36:13;14.02;;;7.75;;
36475;SDS011;56615;42.682;23.364;2022-12-18T02:38:40;12.00;;;7.47;;
36475;SDS011;56615;42.682;23.364;2022-12-18T02:41:06;13.60;;;7.95;;
36475;SDS011;56615;42.682;23.364;2022-12-18T02:43:32;12.98;;;8.23;;
36475;SDS011;56615;42.682;23.364;2022-12-18T02:45:58;13.70;;;8.13;;
36475;SDS011;56615;42.682;23.364;2022-12-18T02:48:34;13.82;;;7.82;;
36475;SDS011;56615;42.682;23.364;2022-12-18T02:51:08;13.30;;;7.90;;
36475;SDS011;56615;42.682;23.364;2022-12-18T02:54:13;13.13;;;8.02;;
36475;SDS011;56615;42.682;23.364;2022-12-18T02:56:35;13.48;;;8.18;;
36475;SDS011;56615;42.682;23.364;2022-12-18T03:04:37;12.85;;;7.85;;
36475;SDS011;56615;42.682;23.364;2022-12-18T03:07:16;12.88;;;8.15;;
36475;SDS011;56615;42.682;23.364;2022-12-18T03:09:46;14.18;;;7.65;;
36475;SDS011;56615;42.682;23.364;2022-12-18T03:17:29;13.13;;;8.68;;
36475;SDS011;56615;42.682;23.364;2022-12-18T03:19:56;13.15;;;8.40;;
36475;SDS011;56615;42.682;23.364;2022-12-18T03:22:25;13.52;;;8.15;;
36475;SDS011;56615;42.682;23.364;2022-12-18T03:24:52;12.80;;;8.02;;
36475;SDS011;56615;42.682;23.364;2022-12-18T03:27:19;14.20;;;8.52;;
36475;SDS011;56615;42.682;23.364;2022-12-18T03:29:49;14.00;;;8.27;;
36475;SDS011;56615;42.682;23.364;2022-12-18T03:32:27;13.88;;;7.85;;
36475;SDS011;56615;42.682;23.364;2022-12-18T03:34:56;14.30;;;8.63;;
36475;SDS011;56615;42.682;23.364;2022-12-18T03:37:23;13.30;;;8.40;;
36475;SDS011;56615;42.682;23.364;2022-12-18T03:39:49;14.80;;;8.55;;
36475;SDS011;56615;42.682;23.364;2022-12-18T03:42:15;14.93;;;8.70;;
36475;SDS011;56615;42.682;23.364;2022-12-18T03:44:55;14.50;;;8.65;;
36475;SDS011;56615;42.682;23.364;2022-12-18T03:52:47;13.43;;;8.30;;
36475;SDS011;56615;42.682;23.364;2022-12-18T03:55:15;14.82;;;8.65;;
36475;SDS011;56615;42.682;23.364;2022-12-18T03:57:42;14.45;;;8.85;;
36475;SDS011;56615;42.682;23.364;2022-12-18T04:00:12;14.10;;;8.32;;
36475;SDS011;56615;42.682;23.364;2022-12-18T04:02:39;15.40;;;8.40;;
36475;SDS011;56615;42.682;23.364;2022-12-18T04:05:08;14.15;;;8.48;;
36475;SDS011;56615;42.682;23.364;2022-12-18T04:07:33;13.80;;;8.55;;
36475;SDS011;56615;42.682;23.364;2022-12-18T04:10:00;14.90;;;8.27;;
36475;SDS011;56615;42.682;23.364;2022-12-18T04:12:26;14.90;;;8.93;;
36475;SDS011;56615;42.682;23.364;2022-12-18T04:14:54;13.95;;;8.05;;
36475;SDS011;56615;42.682;23.364;2022-12-18T04:17:19;15.07;;;9.13;;
36475;SDS011;56615;42.682;23.364;2022-12-18T04:19:46;13.57;;;8.57;;
36475;SDS011;56615;42.682;23.364;2022-12-18T04:22:19;17.48;;;9.55;;
36475;SDS011;56615;42.682;23.364;2022-12-18T04:24:59;16.75;;;9.57;;
36475;SDS011;56615;42.682;23.364;2022-12-18T04:27:25;15.93;;;9.38;;
36475;SDS011;56615;42.682;23.364;2022-12-18T04:29:50;15.65;;;9.38;;
36475;SDS011;56615;42.682;23.364;2022-12-18T04:32:16;17.20;;;10.25;;
36475;SDS011;56615;42.682;23.364;2022-12-18T04:34:41;16.75;;;9.27;;
36475;SDS011;56615;42.682;23.364;2022-12-18T04:37:06;17.17;;;9.93;;
36475;SDS011;56615;42.682;23.364;2022-12-18T04:39:32;17.33;;;9.88;;
36475;SDS011;56615;42.682;23.364;2022-12-18T04:42:00;17.77;;;10.20;;
36475;SDS011;56615;42.682;23.364;2022-12-18T04:44:26;18.75;;;10.65;;
36475;SDS011;56615;42.682;23.364;2022-12-18T04:46:51;39.45;;;22.92;;
36475;SDS011;56615;42.682;23.364;2022-12-18T04:49:21;22.20;;;13.30;;
36475;SDS011;56615;42.682;23.364;2022-12-18T04:51:47;26.65;;;18.02;;
36475;SDS011;56615;42.682;23.364;2022-12-18T04:54:16;20.67;;;14.00;;
36475;SDS011;56615;42.682;23.364;2022-12-18T04:56:49;20.73;;;13.65;;
36475;SDS011;56615;42.682;23.364;2022-12-18T04:59:14;21.42;;;13.70;;
36475;SDS011;56615;42.682;23.364;2022-12-18T05:01:40;21.05;;;13.13;;
36475;SDS011;56615;42.682;23.364;2022-12-18T05:04:07;22.00;;;12.10;;
36475;SDS011;56615;42.682;23.364;2022-12-18T05:06:45;23.58;;;14.68;;
36475;SDS011;56615;42.682;23.364;2022-12-18T05:09:15;22.90;;;13.27;;
36475;SDS011;56615;42.682;23.364;2022-12-18T05:14:30;20.77;;;12.88;;
36475;SDS011;56615;42.682;23.364;2022-12-18T05:16:56;22.92;;;13.02;;
36475;SDS011;56615;42.682;23.364;2022-12-18T05:19:25;22.48;;;12.95;;
36475;SDS011;56615;42.682;23.364;2022-12-18T05:21:51;22.40;;;13.52;;
36475;SDS011;56615;42.682;23.364;2022-12-18T05:24:16;20.50;;;12.50;;
36475;SDS011;56615;42.682;23.364;2022-12-18T05:26:43;21.15;;;12.65;;
36475;SDS011;56615;42.682;23.364;2022-12-18T05:29:11;22.33;;;13.35;;
36475;SDS011;56615;42.682;23.364;2022-12-18T05:31:41;20.83;;;12.70;;
36475;SDS011;56615;42.682;23.364;2022-12-18T05:34:13;22.75;;;13.25;;
36475;SDS011;56615;42.682;23.364;2022-12-18T05:36:51;23.27;;;14.25;;
36475;SDS011;56615;42.682;23.364;2022-12-18T05:39:19;24.98;;;14.65;;
36475;SDS011;56615;42.682;23.364;2022-12-18T05:41:50;22.55;;;13.35;;
36475;SDS011;56615;42.682;23.364;2022-12-18T05:44:16;24.63;;;14.18;;
36475;SDS011;56615;42.682;23.364;2022-12-18T05:46:41;22.98;;;13.93;;
36475;SDS011;56615;42.682;23.364;2022-12-18T05:49:07;23.30;;;13.20;;
36475;SDS011;56615;42.682;23.364;2022-12-18T05:51:34;23.52;;;14.13;;
36475;SDS011;56615;42.682;23.364;2022-12-18T05:54:00;23.38;;;13.13;;
36475;SDS011;56615;42.682;23.364;2022-12-18T05:56:25;20.55;;;12.10;;
36475;SDS011;56615;42.682;23.364;2022-12-18T05:58:51;23.52;;;14.23;;
36475;SDS011;56615;42.682;23.364;2022-12-18T06:01:19;24.73;;;13.65;;
36475;SDS011;56615;42.682;23.364;2022-12-18T06:03:46;21.92;;;13.25;;
36475;SDS011;56615;42.682;23.364;2022-12-18T06:06:13;23.05;;;13.73;;
36475;SDS011;56615;42.682;23.364;2022-12-18T06:08:39;23.10;;;13.65;;
36475;SDS011;56615;42.682;23.364;2022-12-18T06:11:05;23.00;;;14.40;;
36475;SDS011;56615;42.682;23.364;2022-12-18T06:13:30;24.73;;;13.77;;
36475;SDS011;56615;42.682;23.364;2022-12-18T06:15:56;22.65;;;13.80;;
36475;SDS011;56615;42.682;23.364;2022-12-18T06:18:27;25.60;;;14.75;;
36475;SDS011;56615;42.682;23.364;2022-12-18T06:20:55;29.00;;;19.17;;
36475;SDS011;56615;42.682;23.364;2022-12-18T06:23:23;66.72;;;40.22;;
36475;SDS011;56615;42.682;23.364;2022-12-18T06:25:50;33.13;;;18.77;;
36475;SDS011;56615;42.682;23.364;2022-12-18T06:28:17;69.90;;;40.42;;
36475;SDS011;56615;42.682;23.364;2022-12-18T06:30:46;45.10;;;25.45;;
36475;SDS011;56615;42.682;23.364;2022-12-18T06:33:13;41.70;;;23.05;;
36475;SDS011;56615;42.682;23.364;2022-12-18T06:35:39;32.92;;;20.25;;
36475;SDS011;56615;42.682;23.364;2022-12-18T06:38:09;25.20;;;15.13;;
36475;SDS011;56615;42.682;23.364;2022-12-18T06:40:39;27.67;;;16.10;;
36475;SDS011;56615;42.682;23.364;2022-12-18T06:43:07;24.10;;;14.43;;
36475;SDS011;56615;42.682;23.364;2022-12-18T06:45:40;25.00;;;14.88;;
36475;SDS011;56615;42.682;23.364;2022-12-18T06:48:07;26.10;;;14.93;;
36475;SDS011;56615;42.682;23.364;2022-12-18T06:50:33;24.30;;;14.73;;
36475;SDS011;56615;42.682;23.364;2022-12-18T06:52:59;25.27;;;14.82;;
36475;SDS011;56615;42.682;23.364;2022-12-18T06:55:24;24.80;;;14.82;;
36475;SDS011;56615;42.682;23.364;2022-12-18T06:57:50;23.85;;;14.65;;
36475;SDS011;56615;42.682;23.364;2022-12-18T07:00:16;23.20;;;14.57;;
36475;SDS011;56615;42.682;23.364;2022-12-18T07:02:53;28.05;;;15.45;;
36475;SDS011;56615;42.682;23.364;2022-12-18T07:05:32;25.38;;;13.93;;
36475;SDS011;56615;42.682;23.364;2022-12-18T07:07:58;26.10;;;15.27;;
36475;SDS011;56615;42.682;23.364;2022-12-18T07:10:24;25.55;;;16.05;;
36475;SDS011;56615;42.682;23.364;2022-12-18T07:12:50;23.13;;;14.70;;
36475;SDS011;56615;42.682;23.364;2022-12-18T07:15:15;24.00;;;15.07;;
36475;SDS011;56615;42.682;23.364;2022-12-18T07:17:40;23.15;;;14.65;;
36475;SDS011;56615;42.682;23.364;2022-12-18T07:20:06;23.13;;;13.88;;
36475;SDS011;56615;42.682;23.364;2022-12-18T07:22:32;22.25;;;13.07;;
36475;SDS011;56615;42.682;23.364;2022-12-18T07:24:57;24.85;;;15.23;;
36475;SDS011;56615;42.682;23.364;2022-12-18T07:27:23;36.47;;;19.85;;
36475;SDS011;56615;42.682;23.364;2022-12-18T07:29:48;32.35;;;18.17;;
36475;SDS011;56615;42.682;23.364;2022-12-18T07:32:14;28.02;;;16.08;;
36475;SDS011;56615;42.682;23.364;2022-12-18T07:34:40;30.52;;;17.15;;
36475;SDS011;56615;42.682;23.364;2022-12-18T07:37:05;27.90;;;15.82;;
36475;SDS011;56615;42.682;23.364;2022-12-18T07:39:32;27.45;;;15.55;;
36475;SDS011;56615;42.682;23.364;2022-12-18T07:41:58;29.75;;;16.98;;
36475;SDS011;56615;42.682;23.364;2022-12-18T07:44:42;26.63;;;16.33;;
36475;SDS011;56615;42.682;23.364;2022-12-18T07:47:08;28.60;;;17.85;;
36475;SDS011;56615;42.682;23.364;2022-12-18T07:49:33;26.60;;;16.33;;
36475;SDS011;56615;42.682;23.364;2022-12-18T07:51:59;36.80;;;22.52;;
36475;SDS011;56615;42.682;23.364;2022-12-18T07:54:27;33.35;;;20.55;;
36475;SDS011;56615;42.682;23.364;2022-12-18T07:56:56;33.17;;;19.25;;
36475;SDS011;56615;42.682;23.364;2022-12-18T07:59:22;29.65;;;17.40;;
36475;SDS011;56615;42.682;23.364;2022-12-18T08:01:47;31.33;;;17.83;;
36475;SDS011;56615;42.682;23.364;2022-12-18T08:04:13;31.73;;;17.88;;
36475;SDS011;56615;42.682;23.364;2022-12-18T08:06:38;30.35;;;17.98;;
36475;SDS011;56615;42.682;23.364;2022-12-18T08:09:04;28.80;;;17.10;;
36475;SDS011;56615;42.682;23.364;2022-12-18T08:11:29;30.65;;;18.23;;
36475;SDS011;56615;42.682;23.364;2022-12-18T08:13:54;35.15;;;21.25;;
36475;SDS011;56615;42.682;23.364;2022-12-18T08:16:21;30.25;;;18.52;;
36475;SDS011;56615;42.682;23.364;2022-12-18T08:18:47;30.08;;;18.45;;
36475;SDS011;56615;42.682;23.364;2022-12-18T08:21:14;33.15;;;19.95;;
36475;SDS011;56615;42.682;23.364;2022-12-18T08:23:43;31.42;;;19.92;;
36475;SDS011;56615;42.682;23.364;2022-12-18T08:26:12;30.85;;;18.75;;
36475;SDS011;56615;42.682;23.364;2022-12-18T08:28:47;29.95;;;18.08;;
36475;SDS011;56615;42.682;23.364;2022-12-18T08:31:34;34.03;;;19.75;;
36475;SDS011;56615;42.682;23.364;2022-12-18T08:34:05;32.08;;;19.92;;
36475;SDS011;56615;42.682;23.364;2022-12-18T08:36:31;37.50;;;24.60;;
36475;SDS011;56615;42.682;23.364;2022-12-18T08:39:05;32.83;;;20.35;;
36475;SDS011;56615;42.682;23.364;2022-12-18T08:41:32;33.85;;;19.70;;
36475;SDS011;56615;42.682;23.364;2022-12-18T08:43:58;32.83;;;18.40;;
36475;SDS011;56615;42.682;23.364;2022-12-18T08:46:47;29.83;;;17.15;;
36475;SDS011;56615;42.682;23.364;2022-12-18T08:49:14;30.70;;;17.33;;
36475;SDS011;56615;42.682;23.364;2022-12-18T08:51:40;30.38;;;16.95;;
36475;SDS011;56615;42.682;23.364;2022-12-18T08:54:10;29.00;;;17.48;;
36475;SDS011;56615;42.682;23.364;2022-12-18T08:59:28;30.13;;;16.85;;
36475;SDS011;56615;42.682;23.364;2022-12-18T09:01:55;30.60;;;16.65;;
36475;SDS011;56615;42.682;23.364;2022-12-18T09:04:21;27.77;;;16.50;;
36475;SDS011;56615;42.682;23.364;2022-12-18T09:06:47;28.02;;;16.27;;
36475;SDS011;56615;42.682;23.364;2022-12-18T09:09:15;27.65;;;16.45;;
36475;SDS011;56615;42.682;23.364;2022-12-18T09:11:42;28.65;;;15.70;;
36475;SDS011;56615;42.682;23.364;2022-12-18T09:14:08;26.10;;;15.90;;
36475;SDS011;56615;42.682;23.364;2022-12-18T09:16:38;25.97;;;14.87;;
36475;SDS011;56615;42.682;23.364;2022-12-18T09:19:09;28.02;;;15.80;;
36475;SDS011;56615;42.682;23.364;2022-12-18T09:21:35;28.33;;;15.50;;
36475;SDS011;56615;42.682;23.364;2022-12-18T09:24:04;27.95;;;15.82;;
36475;SDS011;56615;42.682;23.364;2022-12-18T09:26:31;25.88;;;15.13;;
36475;SDS011;56615;42.682;23.364;2022-12-18T09:28:56;27.52;;;15.85;;
36475;SDS011;56615;42.682;23.364;2022-12-18T09:31:25;30.50;;;15.52;;
36475;SDS011;56615;42.682;23.364;2022-12-18T09:33:50;25.27;;;14.77;;
36475;SDS011;56615;42.682;23.364;2022-12-18T09:36:16;26.67;;;15.05;;
36475;SDS011;56615;42.682;23.364;2022-12-18T09:38:44;25.00;;;14.52;;
36475;SDS011;56615;42.682;23.364;2022-12-18T09:41:27;27.45;;;15.73;;
36475;SDS011;56615;42.682;23.364;2022-12-18T09:43:58;27.10;;;15.25;;
36475;SDS011;56615;42.682;23.364;2022-12-18T09:46:30;27.13;;;15.70;;
36475;SDS011;56615;42.682;23.364;2022-12-18T09:49:00;27.23;;;15.57;;
36475;SDS011;56615;42.682;23.364;2022-12-18T09:51:37;25.42;;;15.45;;
36475;SDS011;56615;42.682;23.364;2022-12-18T09:54:20;25.98;;;15.27;;
36475;SDS011;56615;42.682;23.364;2022-12-18T09:56:47;26.80;;;15.10;;
36475;SDS011;56615;42.682;23.364;2022-12-18T09:59:23;26.23;;;15.30;;
36475;SDS011;56615;42.682;23.364;2022-12-18T10:01:50;27.90;;;15.35;;
36475;SDS011;56615;42.682;23.364;2022-12-18T10:04:16;27.92;;;14.85;;
36475;SDS011;56615;42.682;23.364;2022-12-18T10:15:48;25.23;;;13.60;;
36475;SDS011;56615;42.682;23.364;2022-12-18T10:18:37;25.85;;;14.52;;
36475;SDS011;56615;42.682;23.364;2022-12-18T10:21:10;24.65;;;13.35;;
36475;SDS011;56615;42.682;23.364;2022-12-18T10:26:10;24.45;;;13.43;;
36475;SDS011;56615;42.682;23.364;2022-12-18T10:28:38;25.90;;;13.73;;
36475;SDS011;56615;42.682;23.364;2022-12-18T10:31:05;23.45;;;13.63;;
36475;SDS011;56615;42.682;23.364;2022-12-18T10:33:32;24.30;;;14.13;;
36475;SDS011;56615;42.682;23.364;2022-12-18T10:35:58;24.75;;;14.30;;
36475;SDS011;56615;42.682;23.364;2022-12-18T10:38:31;26.52;;;15.32;;
36475;SDS011;56615;42.682;23.364;2022-12-18T10:43:33;26.48;;;14.65;;
36475;SDS011;56615;42.682;23.364;2022-12-18T10:51:30;25.73;;;14.63;;
36475;SDS011;56615;42.682;23.364;2022-12-18T10:54:06;30.40;;;17.33;;
36475;SDS011;56615;42.682;23.364;2022-12-18T10:56:38;25.23;;;14.48;;
36475;SDS011;56615;42.682;23.364;2022-12-18T10:59:06;29.25;;;17.45;;
36475;SDS011;56615;42.682;23.364;2022-12-18T11:01:53;28.70;;;15.93;;
36475;SDS011;56615;42.682;23.364;2022-12-18T11:04:32;29.65;;;15.93;;
36475;SDS011;56615;42.682;23.364;2022-12-18T11:07:07;29.33;;;15.05;;
36475;SDS011;56615;42.682;23.364;2022-12-18T11:09:39;27.47;;;16.17;;
36475;SDS011;56615;42.682;23.364;2022-12-18T11:12:18;28.23;;;15.27;;
36475;SDS011;56615;42.682;23.364;2022-12-18T11:14:48;27.60;;;15.05;;
36475;SDS011;56615;42.682;23.364;2022-12-18T11:17:35;26.92;;;14.57;;
36475;SDS011;56615;42.682;23.364;2022-12-18T11:20:05;27.45;;;16.08;;
36475;SDS011;56615;42.682;23.364;2022-12-18T11:22:34;26.60;;;14.90;;
36475;SDS011;56615;42.682;23.364;2022-12-18T11:27:51;25.02;;;14.18;;
36475;SDS011;56615;42.682;23.364;2022-12-18T11:36:55;27.50;;;14.82;;
36475;SDS011;56615;42.682;23.364;2022-12-18T11:42:14;25.83;;;15.48;;
36475;SDS011;56615;42.682;23.364;2022-12-18T11:50:51;26.88;;;14.00;;
36475;SDS011;56615;42.682;23.364;2022-12-18T11:53:28;24.48;;;13.82;;
36475;SDS011;56615;42.682;23.364;2022-12-18T11:56:39;26.95;;;15.10;;
36475;SDS011;56615;42.682;23.364;2022-12-18T11:59:33;26.80;;;13.67;;
36475;SDS011;56615;42.682;23.364;2022-12-18T12:08:45;27.02;;;15.10;;
36475;SDS011;56615;42.682;23.364;2022-12-18T12:28:57;32.85;;;15.93;;
36475;SDS011;56615;42.682;23.364;2022-12-18T12:40:26;26.40;;;15.07;;
36475;SDS011;56615;42.682;23.364;2022-12-18T12:42:54;27.30;;;15.63;;
36475;SDS011;56615;42.682;23.364;2022-12-18T12:51:02;29.33;;;15.73;;
36475;SDS011;56615;42.682;23.364;2022-12-18T12:53:34;27.77;;;15.73;;
36475;SDS011;56615;42.682;23.364;2022-12-18T12:56:01;26.65;;;15.90;;
36475;SDS011;56615;42.682;23.364;2022-12-18T12:58:30;26.83;;;15.88;;
36475;SDS011;56615;42.682;23.364;2022-12-18T13:01:09;24.90;;;14.65;;
36475;SDS011;56615;42.682;23.364;2022-12-18T13:08:55;29.23;;;16.42;;
36475;SDS011;56615;42.682;23.364;2022-12-18T13:14:48;29.38;;;16.17;;
36475;SDS011;56615;42.682;23.364;2022-12-18T13:17:14;29.08;;;15.93;;
36475;SDS011;56615;42.682;23.364;2022-12-18T13:22:44;26.58;;;14.02;;
36475;SDS011;56615;42.682;23.364;2022-12-18T13:25:28;24.00;;;14.50;;
36475;SDS011;56615;42.682;23.364;2022-12-18T13:28:02;27.63;;;14.13;;
36475;SDS011;56615;42.682;23.364;2022-12-18T13:36:33;28.00;;;15.77;;
36475;SDS011;56615;42.682;23.364;2022-12-18T13:39:09;29.02;;;15.68;;
36475;SDS011;56615;42.682;23.364;2022-12-18T13:41:35;27.55;;;16.00;;
36475;SDS011;56615;42.682;23.364;2022-12-18T13:44:43;29.23;;;16.45;;
36475;SDS011;56615;42.682;23.364;2022-12-18T13:47:02;30.50;;;15.80;;
36475;SDS011;56615;42.682;23.364;2022-12-18T13:49:34;27.38;;;15.15;;
36475;SDS011;56615;42.682;23.364;2022-12-18T13:52:02;28.13;;;16.02;;
36475;SDS011;56615;42.682;23.364;2022-12-18T13:54:41;27.60;;;15.55;;
36475;SDS011;56615;42.682;23.364;2022-12-18T14:02:54;29.65;;;15.77;;
36475;SDS011;56615;42.682;23.364;2022-12-18T14:05:23;30.73;;;16.08;;
36475;SDS011;56615;42.682;23.364;2022-12-18T14:07:54;25.80;;;15.07;;
36475;SDS011;56615;42.682;23.364;2022-12-18T14:10:20;30.90;;;17.38;;
36475;SDS011;56615;42.682;23.364;2022-12-18T14:12:47;34.42;;;19.30;;
36475;SDS011;56615;42.682;23.364;2022-12-18T14:17:52;33.70;;;17.75;;
36475;SDS011;56615;42.682;23.364;2022-12-18T14:20:25;31.58;;;16.63;;
36475;SDS011;56615;42.682;23.364;2022-12-18T14:22:52;32.47;;;19.65;;
36475;SDS011;56615;42.682;23.364;2022-12-18T14:25:25;38.72;;;23.67;;
36475;SDS011;56615;42.682;23.364;2022-12-18T14:28:14;35.97;;;21.80;;
36475;SDS011;56615;42.682;23.364;2022-12-18T14:31:01;29.42;;;16.65;;
36475;SDS011;56615;42.682;23.364;2022-12-18T14:33:31;30.15;;;17.00;;
36475;SDS011;56615;42.682;23.364;2022-12-18T14:36:13;25.83;;;14.45;;
36475;SDS011;56615;42.682;23.364;2022-12-18T14:38:42;25.35;;;14.45;;
36475;SDS011;56615;42.682;23.364;2022-12-18T14:41:14;24.30;;;13.88;;
36475;SDS011;56615;42.682;23.364;2022-12-18T14:44:04;26.90;;;14.75;;
36475;SDS011;56615;42.682;23.364;2022-12-18T14:46:43;23.30;;;13.02;;
36475;SDS011;56615;42.682;23.364;2022-12-18T14:52:06;25.08;;;14.45;;
36475;SDS011;56615;42.682;23.364;2022-12-18T14:54:52;26.98;;;13.98;;
36475;SDS011;56615;42.682;23.364;2022-12-18T14:57:28;26.40;;;14.73;;
36475;SDS011;56615;42.682;23.364;2022-12-18T15:00:06;27.30;;;14.13;;
36475;SDS011;56615;42.682;23.364;2022-12-18T15:02:40;24.27;;;14.75;;
36475;SDS011;56615;42.682;23.364;2022-12-18T15:07:57;26.17;;;13.77;;
36475;SDS011;56615;42.682;23.364;2022-12-18T15:10:30;27.75;;;14.95;;
36475;SDS011;56615;42.682;23.364;2022-12-18T15:13:24;25.17;;;14.25;;
36475;SDS011;56615;42.682;23.364;2022-12-18T15:15:54;22.30;;;12.55;;
36475;SDS011;56615;42.682;23.364;2022-12-18T15:18:27;23.20;;;13.13;;
36475;SDS011;56615;42.682;23.364;2022-12-18T15:20:58;24.40;;;12.40;;
36475;SDS011;56615;42.682;23.364;2022-12-18T15:26:10;23.70;;;12.88;;
36475;SDS011;56615;42.682;23.364;2022-12-18T15:28:39;24.80;;;12.50;;
36475;SDS011;56615;42.682;23.364;2022-12-18T15:33:37;22.75;;;12.23;;
36475;SDS011;56615;42.682;23.364;2022-12-18T15:36:11;26.52;;;13.73;;
36475;SDS011;56615;42.682;23.364;2022-12-18T15:38:56;24.85;;;13.38;;
36475;SDS011;56615;42.682;23.364;2022-12-18T15:41:23;27.13;;;14.38;;
36475;SDS011;56615;42.682;23.364;2022-12-18T15:43:49;24.85;;;13.88;;
36475;SDS011;56615;42.682;23.364;2022-12-18T15:46:18;24.88;;;14.02;;
36475;SDS011;56615;42.682;23.364;2022-12-18T15:48:49;27.23;;;14.73;;
36475;SDS011;56615;42.682;23.364;2022-12-18T15:51:32;26.85;;;14.23;;
36475;SDS011;56615;42.682;23.364;2022-12-18T15:54:19;27.35;;;14.27;;
36475;SDS011;56615;42.682;23.364;2022-12-18T15:57:08;42.92;;;23.15;;
36475;SDS011;56615;42.682;23.364;2022-12-18T15:59:58;23.33;;;13.40;;
36475;SDS011;56615;42.682;23.364;2022-12-18T16:02:25;26.92;;;14.60;;
36475;SDS011;56615;42.682;23.364;2022-12-18T16:04:53;27.83;;;14.68;;
36475;SDS011;56615;42.682;23.364;2022-12-18T16:07:28;27.42;;;13.95;;
36475;SDS011;56615;42.682;23.364;2022-12-18T16:15:51;27.95;;;14.85;;
36475;SDS011;56615;42.682;23.364;2022-12-18T16:18:19;25.38;;;14.80;;
36475;SDS011;56615;42.682;23.364;2022-12-18T16:20:45;26.40;;;14.45;;
36475;SDS011;56615;42.682;23.364;2022-12-18T16:23:10;25.55;;;13.80;;
36475;SDS011;56615;42.682;23.364;2022-12-18T16:25:39;27.80;;;14.68;;
36475;SDS011;56615;42.682;23.364;2022-12-18T16:28:04;27.75;;;15.52;;
36475;SDS011;56615;42.682;23.364;2022-12-18T16:30:33;29.05;;;15.35;;
36475;SDS011;56615;42.682;23.364;2022-12-18T16:32:58;26.77;;;15.73;;
36475;SDS011;56615;42.682;23.364;2022-12-18T16:35:24;28.48;;;16.67;;
36475;SDS011;56615;42.682;23.364;2022-12-18T16:37:53;27.70;;;15.65;;
36475;SDS011;56615;42.682;23.364;2022-12-18T16:40:18;32.38;;;18.33;;
36475;SDS011;56615;42.682;23.364;2022-12-18T16:42:45;28.67;;;15.52;;
36475;SDS011;56615;42.682;23.364;2022-12-18T16:45:12;28.23;;;16.88;;
36475;SDS011;56615;42.682;23.364;2022-12-18T16:47:39;36.78;;;21.75;;
36475;SDS011;56615;42.682;23.364;2022-12-18T16:50:05;33.88;;;17.98;;
36475;SDS011;56615;42.682;23.364;2022-12-18T16:52:31;31.85;;;17.60;;
36475;SDS011;56615;42.682;23.364;2022-12-18T16:54:57;28.83;;;17.33;;
36475;SDS011;56615;42.682;23.364;2022-12-18T16:57:22;31.85;;;16.27;;
36475;SDS011;56615;42.682;23.364;2022-12-18T16:59:48;34.67;;;22.38;;
36475;SDS011;56615;42.682;23.364;2022-12-18T17:02:23;28.48;;;16.70;;
36475;SDS011;56615;42.682;23.364;2022-12-18T17:04:52;31.35;;;17.50;;
36475;SDS011;56615;42.682;23.364;2022-12-18T17:07:18;41.03;;;23.15;;
36475;SDS011;56615;42.682;23.364;2022-12-18T17:09:44;47.95;;;27.30;;